Terminal Aerodrome Forecast
Issued by NWS Mt. Holly, NJ

Home | Current Version | Previous Version | Text Only | Print | Product List | Glossary On
Versions: 1 2 3 4 5 6 7 8 9 10 11 12 13 14 15 16 17 18 19
312
FTUS41 KPHI 211137
TAFRDG
TAF
KRDG 211137Z 2112/2212 00000KT 1/2SM FG OVC002
     FM211500 VRB03KT 3SM BR BKN005 OVC012
     FM211700 22004KT P6SM BKN012
     FM220000 00000KT 2SM BR OVC003
     FM220600 00000KT 1/2SM FG OVC002=

USA.gov is the U.S. government's official web portal to all federal, state and local government web resources and services.